createdAt,value
2018-12-04T00:00:31.455Z,10.71
2018-12-04T00:01:31.494Z,10.59
2018-12-04T00:02:31.432Z,10.66
2018-12-04T00:03:31.427Z,10.59
2018-12-04T00:04:31.416Z,10.66
2018-12-04T00:05:31.399Z,10.63
2018-12-04T00:06:31.388Z,10.61
2018-12-04T00:07:31.378Z,10.59
2018-12-04T00:08:31.365Z,10.61
2018-12-04T00:09:31.361Z,10.66
2018-12-04T00:10:31.342Z,10.57
2018-12-04T00:11:31.336Z,10.71
2018-12-04T00:12:31.327Z,10.64
2018-12-04T00:13:31.320Z,10.57
2018-12-04T00:14:31.322Z,10.69
2018-12-04T00:15:31.290Z,10.72
2018-12-04T00:16:31.276Z,10.69
2018-12-04T00:17:31.270Z,10.66
2018-12-04T00:18:31.264Z,10.66
2018-12-04T00:19:31.251Z,10.66
2018-12-04T00:20:31.239Z,10.69
2018-12-04T00:21:31.239Z,10.69
2018-12-04T00:22:31.214Z,10.77
2018-12-04T00:23:31.208Z,10.71
2018-12-04T00:24:31.197Z,10.72
2018-12-04T00:25:31.176Z,10.64
2018-12-04T00:26:31.169Z,10.67
2018-12-04T00:27:31.152Z,10.69
2018-12-04T00:28:31.370Z,10.69
2018-12-04T00:29:31.132Z,10.61
2018-12-04T00:30:31.118Z,10.69
2018-12-04T00:31:31.107Z,10.74
2018-12-04T00:32:31.102Z,10.72
2018-12-04T00:33:31.089Z,10.77
2018-12-04T00:34:31.079Z,10.72
2018-12-04T00:35:31.064Z,10.78
2018-12-04T00:36:31.056Z,10.78
2018-12-04T00:37:31.039Z,10.74
2018-12-04T00:38:31.028Z,10.66
2018-12-04T00:39:31.019Z,10.71
2018-12-04T00:40:31.013Z,10.71
2018-12-04T00:41:30.995Z,10.78
2018-12-04T00:42:30.985Z,10.75
2018-12-04T00:43:30.973Z,10.77
2018-12-04T00:44:30.964Z,10.75
2018-12-04T00:45:30.951Z,10.79
2018-12-04T00:46:30.938Z,10.78
2018-12-04T00:47:30.927Z,10.74
2018-12-04T00:48:30.917Z,10.77
2018-12-04T00:49:30.908Z,10.79
2018-12-04T00:50:30.893Z,10.78
2018-12-04T00:51:30.886Z,10.78
2018-12-04T00:52:30.874Z,10.72
2018-12-04T00:53:30.860Z,10.85
2018-12-04T00:54:30.861Z,10.74
2018-12-04T00:55:30.837Z,10.84
2018-12-04T00:56:30.830Z,10.77
2018-12-04T00:57:30.815Z,10.81
2018-12-04T00:58:30.809Z,10.84
2018-12-04T00:59:30.793Z,10.96
2018-12-04T01:00:30.784Z,10.85
2018-12-04T01:01:30.771Z,10.92
2018-12-04T01:02:30.760Z,10.89
2018-12-04T01:03:30.752Z,10.89
2018-12-04T01:04:30.736Z,10.93
2018-12-04T01:05:30.727Z,10.94
2018-12-04T01:06:30.714Z,10.92
2018-12-04T01:07:30.709Z,11.00
2018-12-04T01:08:30.699Z,10.85
2018-12-04T01:09:30.683Z,10.92
2018-12-04T01:10:30.671Z,10.93
2018-12-04T01:11:30.861Z,10.84
2018-12-04T01:12:30.669Z,10.92
2018-12-04T01:13:30.648Z,10.75
2018-12-04T01:14:30.632Z,10.67
2018-12-04T01:15:30.619Z,10.77
2018-12-04T01:16:30.617Z,10.75
2018-12-04T01:17:30.592Z,10.77
2018-12-04T01:18:30.587Z,10.71
2018-12-04T01:19:30.569Z,10.82
2018-12-04T01:20:30.566Z,10.77
2018-12-04T01:21:30.547Z,10.79
2018-12-04T01:22:30.534Z,10.77
2018-12-04T01:23:30.526Z,10.86
2018-12-04T01:24:30.515Z,10.79
2018-12-04T01:25:30.501Z,10.74
2018-12-04T01:26:30.492Z,10.77
2018-12-04T01:27:30.480Z,10.82
2018-12-04T01:28:30.469Z,10.78
2018-12-04T01:29:30.458Z,10.79
2018-12-04T01:30:30.448Z,10.75
2018-12-04T01:31:30.437Z,10.74
2018-12-04T01:32:30.424Z,10.79
2018-12-04T01:33:30.479Z,10.92
2018-12-04T01:34:30.451Z,10.82
2018-12-04T01:35:30.390Z,10.90
2018-12-04T01:36:30.380Z,10.85
2018-12-04T01:37:30.369Z,10.86
2018-12-04T01:38:30.355Z,10.77
2018-12-04T01:39:30.349Z,10.84
2018-12-04T01:40:30.340Z,10.77
2018-12-04T01:41:30.322Z,10.90
2018-12-04T01:42:30.313Z,10.75
2018-12-04T01:43:30.300Z,10.77
2018-12-04T01:44:30.288Z,10.84
2018-12-04T01:45:30.280Z,10.82
2018-12-04T01:46:30.265Z,10.85
2018-12-04T01:47:30.254Z,10.93
2018-12-04T01:48:30.246Z,10.92
2018-12-04T01:49:30.238Z,10.90
2018-12-04T01:50:30.223Z,10.97
2018-12-04T01:51:30.210Z,10.93
2018-12-04T01:52:30.210Z,10.92
2018-12-04T01:53:30.186Z,10.99
2018-12-04T01:54:30.182Z,10.96
2018-12-04T01:55:30.180Z,11.00
2018-12-04T01:56:30.154Z,11.04
2018-12-04T01:57:30.140Z,11.04
2018-12-04T01:58:30.130Z,11.03
2018-12-04T01:59:30.137Z,11.15
2018-12-04T02:00:30.113Z,11.14
2018-12-04T02:01:30.103Z,11.15
2018-12-04T02:02:30.087Z,11.19
2018-12-04T02:03:30.074Z,11.08
2018-12-04T02:04:30.073Z,11.15
2018-12-04T02:05:30.053Z,11.19
2018-12-04T02:06:30.051Z,11.25
2018-12-04T02:07:30.029Z,11.28
2018-12-04T02:08:30.017Z,11.30
2018-12-04T02:09:30.012Z,11.23
2018-12-04T02:10:29.997Z,11.25
2018-12-04T02:11:29.989Z,11.22
2018-12-04T02:12:29.979Z,11.19
2018-12-04T02:13:29.960Z,11.25
2018-12-04T02:14:29.949Z,11.15
2018-12-04T02:15:29.940Z,11.25
2018-12-04T02:16:29.929Z,11.31
2018-12-04T02:17:29.918Z,11.33
2018-12-04T02:18:29.907Z,11.33
2018-12-04T02:19:29.901Z,11.25
2018-12-04T02:20:29.891Z,11.37
2018-12-04T02:21:29.872Z,11.27
2018-12-04T02:22:29.860Z,11.37
2018-12-04T02:23:29.903Z,11.36
2018-12-04T02:24:29.837Z,11.33
2018-12-04T02:25:29.826Z,11.33
2018-12-04T02:26:29.816Z,11.40
2018-12-04T02:27:29.804Z,11.31
2018-12-04T02:28:29.793Z,11.28
2018-12-04T02:29:29.781Z,11.38
2018-12-04T02:30:29.776Z,11.40
2018-12-04T02:31:29.758Z,11.31
2018-12-04T02:32:29.750Z,11.31
2018-12-04T02:33:29.739Z,11.36
2018-12-04T02:34:29.731Z,11.34
2018-12-04T02:35:29.715Z,11.41
2018-12-04T02:36:29.708Z,11.34
2018-12-04T02:37:29.694Z,11.38
2018-12-04T02:38:29.690Z,11.41
2018-12-04T02:39:29.670Z,11.37
2018-12-04T02:40:29.670Z,11.34
2018-12-04T02:41:29.657Z,11.37
2018-12-04T02:42:29.646Z,11.38
2018-12-04T02:43:29.630Z,11.34
2018-12-04T02:44:29.617Z,11.36
2018-12-04T02:45:29.619Z,11.43
2018-12-04T02:46:29.607Z,11.41
2018-12-04T02:47:29.581Z,11.45
2018-12-04T02:48:29.572Z,11.41
2018-12-04T02:49:29.570Z,11.38
2018-12-04T02:50:29.556Z,11.40
2018-12-04T02:51:29.580Z,11.40
2018-12-04T02:52:29.539Z,11.41
2018-12-04T02:53:29.522Z,11.49
2018-12-04T02:54:29.502Z,11.54
2018-12-04T02:55:29.499Z,11.41
2018-12-04T02:56:29.479Z,11.54
2018-12-04T02:57:29.485Z,11.41
2018-12-04T02:58:29.496Z,11.52
2018-12-04T02:59:29.488Z,11.54
2018-12-04T03:00:29.434Z,11.61
2018-12-04T03:01:29.432Z,11.55
2018-12-04T03:02:29.433Z,11.46
2018-12-04T03:03:29.437Z,11.52
2018-12-04T03:04:29.442Z,11.46
2018-12-04T03:05:29.379Z,11.45
2018-12-04T03:06:29.384Z,11.49
2018-12-04T03:07:29.356Z,11.54
2018-12-04T03:08:29.344Z,11.51
2018-12-04T03:09:29.333Z,11.49
2018-12-04T03:10:29.327Z,11.51
2018-12-04T03:11:29.313Z,11.51
2018-12-04T03:12:29.300Z,11.49
2018-12-04T03:13:29.290Z,11.55
2018-12-04T03:14:29.277Z,11.61
2018-12-04T03:15:29.266Z,11.41
2018-12-04T03:16:29.261Z,11.43
2018-12-04T03:17:29.251Z,11.43
2018-12-04T03:18:29.235Z,11.40
2018-12-04T03:19:29.229Z,11.40
2018-12-04T03:20:29.234Z,11.40
2018-12-04T03:21:29.201Z,11.31
2018-12-04T03:22:29.193Z,11.25
2018-12-04T03:23:29.187Z,11.28
2018-12-04T03:24:29.165Z,11.17
2018-12-04T03:26:29.167Z,11.11
2018-12-04T03:28:29.128Z,11.02
2018-12-04T03:30:29.110Z,10.99
2018-12-04T03:31:29.108Z,10.96
2018-12-04T03:32:29.077Z,10.89
2018-12-04T03:33:29.069Z,10.86
2018-12-04T03:34:29.070Z,10.92
2018-12-04T03:36:29.032Z,10.77
2018-12-04T03:38:29.009Z,10.78
2018-12-04T03:40:28.985Z,10.82
2018-12-04T03:41:28.974Z,10.81
2018-12-04T03:44:28.946Z,10.75
2018-12-04T03:45:28.938Z,10.61
2018-12-04T03:46:28.923Z,10.67
2018-12-04T03:47:28.909Z,10.63
2018-12-04T03:48:28.898Z,10.57
2018-12-04T03:49:28.885Z,10.61
2018-12-04T03:51:28.879Z,10.63
2018-12-04T03:52:28.851Z,10.63
2018-12-04T03:53:28.862Z,10.43
2018-12-04T03:54:28.829Z,10.48
2018-12-04T03:57:28.798Z,10.45
2018-12-04T03:58:28.782Z,10.45
2018-12-04T03:59:28.774Z,10.41
2018-12-04T04:00:28.760Z,10.51
2018-12-04T04:01:28.748Z,10.48
2018-12-04T04:02:28.739Z,10.35
2018-12-04T04:04:28.717Z,10.31
2018-12-04T04:06:28.694Z,10.30
2018-12-04T04:07:28.697Z,10.21
2018-12-04T04:08:28.675Z,10.20
2018-12-04T04:09:28.660Z,10.24
2018-12-04T04:11:28.636Z,10.23
2018-12-04T04:12:28.624Z,10.18
2018-12-04T04:14:28.603Z,10.20
2018-12-04T04:15:28.593Z,10.24
2018-12-04T04:17:28.583Z,10.18
2018-12-04T04:18:28.561Z,10.16
2018-12-04T04:19:28.550Z,10.14
2018-12-04T04:20:28.534Z,10.18
2018-12-04T04:21:28.524Z,10.17
2018-12-04T04:22:28.510Z,10.18
2018-12-04T04:23:28.499Z,10.17
2018-12-04T04:24:28.488Z,10.17
2018-12-04T04:25:28.477Z,10.17
2018-12-04T04:26:28.463Z,10.21
2018-12-04T04:27:28.453Z,10.17
2018-12-04T04:28:28.441Z,10.09
2018-12-04T04:29:28.430Z,10.01
2018-12-04T04:30:28.421Z,10.01
2018-12-04T04:31:28.408Z,9.99
2018-12-04T04:32:28.397Z,10.05
2018-12-04T04:33:28.389Z,10.01
2018-12-04T04:34:28.376Z,9.96
2018-12-04T04:35:28.365Z,9.96
2018-12-04T04:36:28.352Z,9.94
2018-12-04T04:37:28.339Z,9.90
2018-12-04T04:38:28.329Z,9.91
2018-12-04T04:39:28.323Z,9.94
2018-12-04T04:40:28.305Z,9.91
2018-12-04T04:41:28.299Z,9.84
2018-12-04T04:42:28.286Z,9.90
2018-12-04T04:43:28.279Z,9.98
2018-12-04T04:44:28.259Z,9.93
2018-12-04T04:45:28.253Z,9.96
2018-12-04T04:46:28.243Z,9.91
2018-12-04T04:47:28.226Z,9.93
2018-12-04T04:48:28.224Z,9.91
2018-12-04T04:49:28.204Z,9.91
2018-12-04T04:50:28.198Z,9.90
2018-12-04T04:51:28.182Z,9.94
2018-12-04T04:52:28.175Z,9.84
2018-12-04T04:53:28.158Z,9.88
2018-12-04T04:54:28.156Z,9.84
2018-12-04T04:55:28.135Z,9.87
2018-12-04T04:56:28.127Z,9.90
2018-12-04T04:58:28.101Z,9.85
2018-12-04T04:59:28.090Z,9.83
2018-12-04T05:00:28.083Z,9.83
2018-12-04T05:01:28.065Z,9.80
2018-12-04T05:02:28.053Z,9.69
2018-12-04T05:03:28.044Z,9.77
2018-12-04T05:04:28.031Z,9.72
2018-12-04T05:05:28.026Z,9.71
2018-12-04T05:06:28.006Z,9.71
2018-12-04T05:07:27.994Z,9.77
2018-12-04T05:08:27.986Z,9.65
2018-12-04T05:09:27.971Z,9.74
2018-12-04T05:10:27.961Z,9.76
2018-12-04T05:11:27.948Z,9.66
2018-12-04T05:12:27.937Z,9.61
2018-12-04T05:13:27.930Z,9.65
2018-12-04T05:14:27.918Z,9.58
2018-12-04T05:15:27.903Z,9.62
2018-12-04T05:16:27.897Z,9.56
2018-12-04T05:17:27.879Z,9.56
2018-12-04T05:18:27.870Z,9.62
2018-12-04T05:19:27.860Z,9.50
2018-12-04T05:20:27.846Z,9.50
2018-12-04T05:21:27.835Z,9.58
2018-12-04T05:22:27.820Z,9.54
2018-12-04T05:23:27.808Z,9.58
2018-12-04T05:24:27.801Z,9.59
2018-12-04T05:25:27.828Z,9.58
2018-12-04T05:26:27.773Z,9.65
2018-12-04T05:27:27.762Z,9.58
2018-12-04T05:28:27.750Z,9.65
2018-12-04T05:29:27.738Z,9.56
2018-12-04T05:30:27.728Z,9.53
2018-12-04T05:31:27.719Z,9.51
2018-12-04T05:32:27.704Z,9.64
2018-12-04T05:33:27.693Z,9.61
2018-12-04T05:34:27.683Z,9.54
2018-12-04T05:35:27.671Z,9.56
2018-12-04T05:36:27.665Z,9.54
2018-12-04T05:37:27.650Z,9.53
2018-12-04T05:38:27.636Z,9.53
2018-12-04T05:39:27.622Z,9.51
2018-12-04T05:40:27.612Z,9.51
2018-12-04T05:41:27.598Z,9.46
2018-12-04T05:42:27.590Z,9.47
2018-12-04T05:43:27.579Z,9.61
2018-12-04T05:44:27.563Z,9.49
2018-12-04T05:45:27.553Z,9.49
2018-12-04T05:46:27.539Z,9.61
2018-12-04T05:47:27.532Z,9.65
2018-12-04T05:48:27.539Z,9.64
2018-12-04T05:49:27.509Z,9.58
2018-12-04T05:50:27.492Z,9.47
2018-12-04T05:51:27.483Z,9.54
2018-12-04T05:52:27.469Z,9.53
2018-12-04T05:53:27.457Z,9.46
2018-12-04T05:54:27.450Z,9.46
2018-12-04T05:55:27.435Z,9.43
2018-12-04T05:56:27.428Z,9.47
2018-12-04T05:57:27.410Z,9.41
2018-12-04T05:58:27.398Z,9.40
2018-12-04T05:59:27.392Z,9.35
2018-12-04T06:00:27.380Z,9.36
2018-12-04T06:01:27.368Z,9.32
2018-12-04T06:02:27.351Z,9.25
2018-12-04T06:03:27.339Z,9.33
2018-12-04T06:04:27.331Z,9.26
2018-12-04T06:05:27.320Z,9.39
2018-12-04T06:06:27.310Z,9.35
2018-12-04T06:07:27.292Z,9.28
2018-12-04T06:08:27.287Z,9.26
2018-12-04T06:09:27.277Z,9.22
2018-12-04T06:10:27.258Z,9.26
2018-12-04T06:11:27.245Z,9.33
2018-12-04T06:12:27.234Z,9.18
2018-12-04T06:13:27.224Z,9.29
2018-12-04T06:14:27.213Z,9.28
2018-12-04T06:15:27.199Z,9.15
2018-12-04T06:16:27.188Z,9.21
2018-12-04T06:17:27.176Z,9.33
2018-12-04T06:18:27.162Z,9.13
2018-12-04T06:19:27.156Z,9.22
2018-12-04T06:20:27.141Z,9.13
2018-12-04T06:21:27.133Z,9.23
2018-12-04T06:22:27.117Z,9.32
2018-12-04T06:23:27.126Z,9.22
2018-12-04T06:24:27.094Z,9.25
2018-12-04T06:25:27.083Z,9.29
2018-12-04T06:26:27.072Z,9.26
2018-12-04T06:27:27.059Z,9.31
2018-12-04T06:28:27.046Z,9.25
2018-12-04T06:29:27.040Z,9.22
2018-12-04T06:30:27.024Z,9.22
2018-12-04T06:31:27.012Z,9.29
2018-12-04T06:32:27.000Z,9.31
2018-12-04T06:33:26.994Z,9.22
2018-12-04T06:34:26.976Z,9.18
2018-12-04T06:35:26.966Z,9.15
2018-12-04T06:36:26.953Z,9.31
2018-12-04T06:37:26.942Z,9.18
2018-12-04T06:38:26.933Z,9.23
2018-12-04T06:39:27.121Z,9.28
2018-12-04T06:40:26.907Z,9.28
2018-12-04T06:41:26.896Z,9.17
2018-12-04T06:42:26.884Z,9.14
2018-12-04T06:43:26.872Z,9.33
2018-12-04T06:44:26.863Z,9.18
2018-12-04T06:45:26.851Z,9.35
2018-12-04T06:46:26.845Z,9.18
2018-12-04T06:47:26.826Z,9.22
2018-12-04T06:48:26.815Z,9.22
2018-12-04T06:49:26.808Z,9.14
2018-12-04T06:50:26.795Z,9.18
2018-12-04T06:51:26.806Z,9.11
2018-12-04T06:52:26.769Z,9.21
2018-12-04T06:53:26.758Z,9.15
2018-12-04T06:54:26.745Z,9.18
2018-12-04T06:55:26.736Z,9.17
2018-12-04T06:56:26.726Z,9.15
2018-12-04T06:57:26.717Z,9.17
2018-12-04T06:58:26.709Z,9.13
2018-12-04T06:59:26.692Z,9.07
2018-12-04T07:00:26.674Z,9.10
2018-12-04T07:01:26.670Z,9.10
2018-12-04T07:02:26.651Z,9.08
2018-12-04T07:03:26.640Z,9.18
2018-12-04T07:04:26.629Z,9.17
2018-12-04T07:05:26.616Z,9.14
2018-12-04T07:06:26.606Z,9.18
2018-12-04T07:07:26.595Z,9.15
2018-12-04T07:08:26.586Z,9.15
2018-12-04T07:09:26.578Z,9.17
2018-12-04T07:10:26.562Z,9.18
2018-12-04T07:11:26.547Z,9.14
2018-12-04T07:12:26.538Z,9.15
2018-12-04T07:13:26.529Z,9.17
2018-12-04T07:14:26.512Z,9.25
2018-12-04T07:15:26.499Z,9.18
2018-12-04T07:16:26.488Z,9.18
2018-12-04T07:17:26.478Z,9.14
2018-12-04T07:18:26.471Z,9.17
2018-12-04T07:19:26.452Z,9.21
2018-12-04T07:20:26.442Z,9.15
2018-12-04T07:21:26.437Z,9.15
2018-12-04T07:22:26.418Z,9.17
2018-12-04T07:23:26.411Z,9.21
2018-12-04T07:24:26.395Z,9.21
2018-12-04T07:25:26.383Z,9.22
2018-12-04T07:26:26.374Z,9.21
2018-12-04T07:27:26.362Z,9.18
2018-12-04T07:28:26.351Z,9.22
2018-12-04T07:29:26.337Z,9.17
2018-12-04T07:30:26.325Z,9.17
2018-12-04T07:31:26.313Z,9.11
2018-12-04T07:32:26.300Z,9.17
2018-12-04T07:33:26.290Z,9.17
2018-12-04T07:34:26.277Z,9.17
2018-12-04T07:35:26.265Z,9.15
2018-12-04T07:36:26.255Z,9.15
2018-12-04T07:37:26.244Z,9.21
2018-12-04T07:38:26.231Z,9.22
2018-12-04T07:39:26.219Z,9.18
2018-12-04T07:40:26.206Z,9.17
2018-12-04T07:41:26.196Z,9.18
2018-12-04T07:42:26.185Z,9.18
2018-12-04T07:43:26.172Z,9.18
2018-12-04T07:44:26.159Z,9.15
2018-12-04T07:45:26.152Z,9.26
2018-12-04T07:46:26.135Z,9.31
2018-12-04T07:47:26.138Z,9.35
2018-12-04T07:48:26.118Z,9.36
2018-12-04T07:49:26.144Z,9.36
2018-12-04T07:50:26.095Z,9.35
2018-12-04T07:51:26.079Z,9.41
2018-12-04T07:52:26.067Z,9.33
2018-12-04T07:53:26.055Z,9.39
2018-12-04T07:54:26.046Z,9.43
2018-12-04T07:55:26.031Z,9.40
2018-12-04T07:56:26.020Z,9.39
2018-12-04T07:57:26.007Z,9.47
2018-12-04T07:58:25.996Z,9.39
2018-12-04T07:59:25.992Z,9.46
2018-12-04T08:00:25.979Z,9.56
2018-12-04T08:01:25.965Z,9.44
2018-12-04T08:02:25.953Z,9.39
2018-12-04T08:03:26.024Z,9.35
2018-12-04T08:04:25.925Z,9.39
2018-12-04T08:05:25.915Z,9.32
2018-12-04T08:06:25.902Z,9.50
2018-12-04T08:07:25.890Z,9.56
2018-12-04T08:08:25.881Z,9.59
2018-12-04T08:09:25.866Z,9.62
2018-12-04T08:10:25.856Z,9.56
2018-12-04T08:11:25.843Z,9.56
2018-12-04T08:12:25.840Z,9.51
2018-12-04T08:13:25.824Z,9.53
2018-12-04T08:14:25.848Z,9.56
2018-12-04T08:15:25.796Z,9.56
2018-12-04T08:16:25.803Z,9.62
2018-12-04T08:17:25.772Z,9.62
2018-12-04T08:18:25.759Z,9.83
2018-12-04T08:19:25.759Z,9.77
2018-12-04T08:20:25.741Z,9.83
2018-12-04T08:21:25.732Z,9.88
2018-12-04T08:22:25.716Z,9.90
2018-12-04T08:23:25.704Z,9.83
2018-12-04T08:24:25.691Z,9.87
2018-12-04T08:25:25.678Z,9.93
2018-12-04T08:26:25.668Z,9.99
2018-12-04T08:28:25.650Z,9.98
2018-12-04T08:29:25.638Z,9.90
2018-12-04T08:30:25.621Z,9.99
2018-12-04T08:31:25.609Z,10.10
2018-12-04T08:32:25.618Z,10.17
2018-12-04T08:33:25.615Z,10.17
2018-12-04T08:34:25.609Z,10.43
2018-12-04T08:35:25.613Z,10.72
2018-12-04T08:36:25.557Z,10.67
2018-12-04T08:37:25.557Z,10.59
2018-12-04T08:38:25.564Z,10.56
2018-12-04T08:39:25.563Z,10.66
2018-12-04T08:40:25.502Z,10.59
2018-12-04T08:41:25.494Z,10.82
2018-12-04T08:42:25.480Z,10.79
2018-12-04T08:43:25.472Z,11.08
2018-12-04T08:44:25.456Z,11.41
2018-12-04T08:45:25.452Z,11.51
2018-12-04T08:46:25.432Z,11.80
2018-12-04T08:47:25.426Z,12.07
2018-12-04T08:48:25.417Z,12.46
2018-12-04T08:49:25.407Z,12.60
2018-12-04T08:50:25.392Z,12.32
2018-12-04T08:51:25.379Z,12.42
2018-12-04T08:52:25.370Z,12.24
2018-12-04T08:53:25.362Z,12.12
2018-12-04T08:54:25.344Z,12.49
2018-12-04T08:55:25.333Z,12.60
2018-12-04T08:56:25.321Z,12.84
2018-12-04T08:57:25.316Z,13.19
2018-12-04T08:58:25.306Z,13.54
2018-12-04T08:59:25.292Z,13.96
2018-12-04T09:00:25.284Z,14.00
2018-12-04T09:01:25.271Z,14.22
2018-12-04T09:02:25.255Z,13.74
2018-12-04T09:03:25.243Z,14.21
2018-12-04T09:04:25.232Z,13.78
2018-12-04T09:05:25.227Z,13.64
2018-12-04T09:06:25.211Z,14.15
2018-12-04T09:07:25.198Z,14.67
2018-12-04T09:08:25.191Z,15.14
2018-12-04T09:09:25.178Z,15.40
2018-12-04T09:10:25.169Z,15.50
2018-12-04T09:11:25.153Z,15.60
2018-12-04T09:12:25.151Z,15.54
2018-12-04T09:13:25.130Z,15.90
2018-12-04T09:14:25.120Z,16.17
2018-12-04T09:15:25.109Z,16.42
2018-12-04T09:16:25.107Z,16.46
2018-12-04T09:17:25.087Z,16.48
2018-12-04T09:18:25.102Z,16.42
2018-12-04T09:19:25.089Z,16.06
2018-12-04T09:20:25.154Z,16.38
2018-12-04T09:21:25.067Z,16.53
2018-12-04T09:22:25.053Z,15.91
2018-12-04T09:23:25.044Z,15.28
2018-12-04T09:24:30.557Z,14.92
2018-12-04T09:25:25.042Z,14.48
2018-12-04T09:26:25.004Z,14.64
2018-12-04T09:27:24.984Z,14.37
2018-12-04T09:28:24.964Z,14.51
2018-12-04T09:29:24.948Z,15.13
2018-12-04T09:30:24.960Z,14.86
2018-12-04T09:31:24.924Z,14.61
2018-12-04T09:32:24.915Z,15.04
2018-12-04T09:33:24.902Z,15.51
2018-12-04T09:34:29.839Z,16.05
2018-12-04T09:35:24.885Z,16.27
2018-12-04T09:36:24.872Z,15.83
2018-12-04T09:37:24.855Z,15.59
2018-12-04T09:38:24.850Z,15.43
2018-12-04T09:39:24.840Z,15.32
2018-12-04T09:40:24.829Z,14.95
2018-12-04T09:41:24.811Z,14.95
2018-12-04T09:42:24.798Z,14.55
2018-12-04T09:43:24.785Z,14.18
2018-12-04T09:44:24.775Z,14.09
2018-12-04T09:45:24.763Z,14.22
2018-12-04T09:46:24.757Z,14.13
2018-12-04T09:47:24.747Z,13.95
2018-12-04T09:48:24.737Z,13.82
2018-12-04T09:49:24.716Z,13.53
2018-12-04T09:50:24.707Z,13.35
2018-12-04T09:51:24.696Z,13.34
2018-12-04T09:52:24.683Z,13.41
2018-12-04T09:53:25.352Z,13.41
2018-12-04T09:54:24.659Z,13.26
2018-12-04T09:55:24.650Z,13.30
2018-12-04T09:56:24.641Z,13.24
2018-12-04T09:57:24.633Z,13.13
2018-12-04T09:58:24.613Z,13.06
2018-12-04T09:59:24.606Z,12.90
2018-12-04T10:00:24.599Z,12.71
2018-12-04T10:01:24.585Z,12.57
2018-12-04T10:02:24.569Z,12.72
2018-12-04T10:03:24.557Z,12.83
2018-12-04T10:04:24.548Z,12.58
2018-12-04T10:05:24.534Z,12.68
2018-12-04T10:06:24.528Z,12.96
2018-12-04T10:07:24.514Z,13.01
2018-12-04T10:08:24.686Z,12.91
2018-12-04T10:09:24.489Z,12.80
2018-12-04T10:10:24.480Z,12.79
2018-12-04T10:11:24.466Z,13.01
2018-12-04T10:12:24.455Z,12.93
2018-12-04T10:13:24.441Z,12.96
2018-12-04T10:14:24.431Z,12.77
2018-12-04T10:15:24.419Z,12.79
2018-12-04T10:16:24.408Z,12.66
2018-12-04T10:17:24.397Z,12.81
2018-12-04T10:18:24.415Z,12.72
2018-12-04T10:19:24.380Z,12.66
2018-12-04T10:20:24.367Z,12.71
2018-12-04T10:21:24.357Z,12.61
2018-12-04T10:22:24.344Z,12.58
2018-12-04T10:23:24.330Z,12.52
2018-12-04T10:24:24.317Z,12.34
2018-12-04T10:25:24.307Z,12.31
2018-12-04T10:26:24.293Z,12.21
2018-12-04T10:27:24.288Z,12.39
2018-12-04T10:28:24.275Z,12.37
2018-12-04T10:29:24.266Z,12.32
2018-12-04T10:30:24.248Z,12.20
2018-12-04T10:31:24.237Z,12.10
2018-12-04T10:32:24.226Z,11.85
2018-12-04T10:33:24.213Z,11.74
2018-12-04T10:34:24.201Z,11.76
2018-12-04T10:35:24.189Z,11.80
2018-12-04T10:36:24.181Z,11.71
2018-12-04T10:37:24.173Z,11.73
2018-12-04T10:38:24.154Z,11.67
2018-12-04T10:39:24.145Z,11.95
2018-12-04T10:40:24.136Z,12.60
2018-12-04T10:41:24.127Z,12.65
2018-12-04T10:42:24.112Z,12.57
2018-12-04T10:43:24.098Z,12.54
2018-12-04T10:44:24.088Z,12.45
2018-12-04T10:45:24.080Z,12.20
2018-12-04T10:46:24.069Z,12.16
2018-12-04T10:47:24.052Z,12.09
2018-12-04T10:48:24.043Z,12.22
2018-12-04T10:49:24.029Z,12.07
2018-12-04T10:50:24.019Z,12.03
2018-12-04T10:51:24.006Z,11.95
2018-12-04T10:52:23.997Z,11.89
2018-12-04T10:53:23.987Z,12.02
2018-12-04T10:54:23.973Z,11.98
2018-12-04T10:55:23.960Z,12.03
2018-12-04T10:56:23.954Z,12.06
2018-12-04T10:57:23.939Z,12.28
2018-12-04T10:58:23.926Z,13.16
2018-12-04T10:59:23.915Z,13.71
2018-12-04T11:00:23.908Z,14.02
2018-12-04T11:01:23.894Z,14.08
2018-12-04T11:02:23.883Z,14.33
2018-12-04T11:03:23.877Z,14.19
2018-12-04T11:04:23.869Z,13.77
2018-12-04T11:05:23.846Z,13.56
2018-12-04T11:07:23.823Z,13.96
2018-12-04T11:08:24.014Z,14.00
2018-12-04T11:09:23.807Z,13.62
2018-12-04T11:10:23.791Z,13.41
2018-12-04T11:11:23.777Z,13.27
2018-12-04T11:12:23.767Z,13.27
2018-12-04T11:13:23.757Z,13.13
2018-12-04T11:14:23.747Z,13.75
2018-12-04T11:15:23.737Z,13.67
2018-12-04T11:16:23.721Z,13.29
2018-12-04T11:17:23.709Z,12.93
2018-12-04T11:18:23.697Z,12.53
2018-12-04T11:19:24.434Z,12.39
2018-12-04T11:20:23.676Z,12.45
2018-12-04T11:21:23.662Z,12.27
2018-12-04T11:22:23.653Z,12.88
2018-12-04T11:23:23.639Z,12.54
2018-12-04T11:24:23.628Z,12.66
2018-12-04T11:25:23.618Z,13.09
2018-12-04T11:26:23.605Z,13.02
2018-12-04T11:27:23.597Z,13.26
2018-12-04T11:28:23.587Z,13.27
2018-12-04T11:29:23.577Z,13.08
2018-12-04T11:30:23.563Z,13.14
2018-12-04T11:31:23.549Z,13.06
2018-12-04T11:32:23.548Z,13.05
2018-12-04T11:33:23.527Z,12.98
2018-12-04T11:34:23.518Z,13.14
2018-12-04T11:35:23.504Z,12.98
2018-12-04T11:36:23.491Z,13.26
2018-12-04T11:37:23.479Z,13.46
2018-12-04T11:38:23.469Z,13.37
2018-12-04T11:39:23.457Z,13.74
2018-12-04T11:40:23.452Z,13.92
2018-12-04T11:41:23.435Z,14.41
2018-12-04T11:42:23.434Z,14.30
2018-12-04T11:43:23.423Z,14.18
2018-12-04T11:44:24.156Z,13.81
2018-12-04T11:45:23.396Z,13.90
2018-12-04T11:46:23.377Z,13.66
2018-12-04T11:47:23.366Z,13.56
2018-12-04T11:48:23.354Z,13.39
2018-12-04T11:49:23.344Z,13.19
2018-12-04T11:50:23.332Z,12.93
2018-12-04T11:51:23.321Z,12.87
2018-12-04T11:52:23.310Z,12.80
2018-12-04T11:53:23.300Z,12.80
2018-12-04T11:54:23.288Z,12.76
2018-12-04T11:55:23.277Z,12.69
2018-12-04T11:56:23.271Z,12.61
2018-12-04T11:57:23.251Z,12.60
2018-12-04T11:58:23.249Z,13.06
2018-12-04T11:59:23.232Z,13.46
2018-12-04T12:00:23.219Z,13.39
2018-12-04T12:01:23.208Z,13.27
2018-12-04T12:02:23.194Z,13.14
2018-12-04T12:03:23.187Z,13.02
2018-12-04T12:04:23.172Z,13.77
2018-12-04T12:05:23.160Z,13.79
2018-12-04T12:06:23.151Z,13.84
2018-12-04T12:07:23.142Z,13.64
2018-12-04T12:08:23.132Z,13.32
2018-12-04T12:09:23.118Z,13.24
2018-12-04T12:10:23.102Z,13.16
2018-12-04T12:11:23.091Z,12.93
2018-12-04T12:12:23.144Z,12.65
2018-12-04T12:13:23.075Z,12.65
2018-12-04T12:14:23.057Z,12.69
2018-12-04T12:15:23.046Z,12.52
2018-12-04T12:16:23.033Z,12.20
2018-12-04T12:17:23.022Z,11.98
2018-12-04T12:18:23.011Z,11.88
2018-12-04T12:19:22.999Z,11.74
2018-12-04T12:20:22.989Z,12.14
2018-12-04T12:21:22.976Z,12.16
2018-12-04T12:22:22.965Z,12.21
2018-12-04T12:23:22.955Z,12.29
2018-12-04T12:24:22.943Z,12.24
2018-12-04T12:25:22.931Z,12.14
2018-12-04T12:26:22.929Z,12.09
2018-12-04T12:27:22.907Z,12.10
2018-12-04T12:28:22.896Z,12.34
2018-12-04T12:29:22.885Z,12.31
2018-12-04T12:30:22.873Z,12.73
2018-12-04T12:31:22.864Z,12.57
2018-12-04T12:32:22.858Z,12.47
2018-12-04T12:33:22.841Z,12.65
2018-12-04T12:34:23.554Z,12.58
2018-12-04T12:35:22.824Z,12.58
2018-12-04T12:36:22.806Z,12.35
2018-12-04T12:37:22.796Z,12.31
2018-12-04T12:38:22.783Z,12.17
2018-12-04T12:39:22.777Z,12.16
2018-12-04T12:40:22.763Z,12.17
2018-12-04T12:41:22.749Z,11.92
2018-12-04T12:42:22.743Z,11.85
2018-12-04T12:43:22.728Z,12.09
2018-12-04T12:44:22.713Z,12.22
2018-12-04T12:45:22.703Z,12.20
2018-12-04T12:46:22.698Z,12.35
2018-12-04T12:47:22.681Z,12.60
2018-12-04T12:48:22.670Z,12.63
2018-12-04T12:49:22.657Z,13.14
2018-12-04T12:50:22.655Z,13.71
2018-12-04T12:51:22.633Z,14.00
2018-12-04T12:52:22.628Z,14.12
2018-12-04T12:53:22.610Z,14.31
2018-12-04T12:54:22.599Z,14.48
2018-12-04T12:55:22.596Z,14.86
2018-12-04T12:56:22.577Z,14.85
2018-12-04T12:57:22.564Z,15.06
2018-12-04T12:58:22.553Z,15.26
2018-12-04T12:59:22.547Z,15.39
2018-12-04T13:00:22.534Z,15.32
2018-12-04T13:01:22.518Z,15.25
2018-12-04T13:02:22.511Z,15.28
2018-12-04T13:03:22.502Z,15.37
2018-12-04T13:04:22.490Z,15.06
2018-12-04T13:05:22.480Z,15.04
2018-12-04T13:06:22.521Z,14.92
2018-12-04T13:07:22.536Z,14.49
2018-12-04T13:08:22.437Z,14.38
2018-12-04T13:09:22.428Z,14.63
2018-12-04T13:10:22.415Z,14.40
2018-12-04T13:11:22.409Z,13.82
2018-12-04T13:12:22.392Z,13.78
2018-12-04T13:13:22.384Z,13.48
2018-12-04T13:14:22.382Z,13.14
2018-12-04T13:15:22.365Z,12.79
2018-12-04T13:16:22.348Z,12.65
2018-12-04T13:17:22.336Z,12.60
2018-12-04T13:18:22.380Z,12.66
2018-12-04T13:19:22.317Z,12.60